sensor_id;sensor_type;location;lat;lon;timestamp;P1;durP1;ratioP1;P2;durP2;ratioP2
6626;SDS011;3349;49.830;8.748;2023-06-22T00:00:10;10.98;;;9.88;;
6626;SDS011;3349;49.830;8.748;2023-06-22T00:02:37;12.00;;;10.80;;
6626;SDS011;3349;49.830;8.748;2023-06-22T00:05:04;13.13;;;10.65;;
6626;SDS011;3349;49.830;8.748;2023-06-22T00:07:31;12.88;;;11.20;;
6626;SDS011;3349;49.830;8.748;2023-06-22T00:09:57;12.15;;;10.95;;
6626;SDS011;3349;49.830;8.748;2023-06-22T00:12:25;11.85;;;10.65;;
6626;SDS011;3349;49.830;8.748;2023-06-22T00:14:52;12.93;;;10.95;;
6626;SDS011;3349;49.830;8.748;2023-06-22T00:17:19;16.92;;;11.43;;
6626;SDS011;3349;49.830;8.748;2023-06-22T00:19:46;11.80;;;10.57;;
6626;SDS011;3349;49.830;8.748;2023-06-22T00:22:18;12.13;;;10.95;;
6626;SDS011;3349;49.830;8.748;2023-06-22T00:24:46;11.98;;;10.73;;
6626;SDS011;3349;49.830;8.748;2023-06-22T00:27:13;12.40;;;9.93;;
6626;SDS011;3349;49.830;8.748;2023-06-22T00:29:41;10.63;;;9.63;;
6626;SDS011;3349;49.830;8.748;2023-06-22T00:32:08;13.35;;;10.52;;
6626;SDS011;3349;49.830;8.748;2023-06-22T00:34:35;12.25;;;10.75;;
6626;SDS011;3349;49.830;8.748;2023-06-22T00:37:01;11.77;;;10.65;;
6626;SDS011;3349;49.830;8.748;2023-06-22T00:39:28;11.68;;;9.52;;
6626;SDS011;3349;49.830;8.748;2023-06-22T00:41:58;11.70;;;10.60;;
6626;SDS011;3349;49.830;8.748;2023-06-22T00:44:26;11.30;;;10.20;;
6626;SDS011;3349;49.830;8.748;2023-06-22T00:46:54;13.20;;;10.52;;
6626;SDS011;3349;49.830;8.748;2023-06-22T00:49:20;12.27;;;10.65;;
6626;SDS011;3349;49.830;8.748;2023-06-22T00:51:47;12.38;;;9.50;;
6626;SDS011;3349;49.830;8.748;2023-06-22T00:54:14;10.88;;;9.65;;
6626;SDS011;3349;49.830;8.748;2023-06-22T00:56:41;12.02;;;10.00;;
6626;SDS011;3349;49.830;8.748;2023-06-22T00:59:08;13.25;;;10.15;;
6626;SDS011;3349;49.830;8.748;2023-06-22T01:01:37;11.70;;;10.50;;
6626;SDS011;3349;49.830;8.748;2023-06-22T01:04:07;10.75;;;9.60;;
6626;SDS011;3349;49.830;8.748;2023-06-22T01:06:35;10.88;;;9.80;;
6626;SDS011;3349;49.830;8.748;2023-06-22T01:09:08;11.57;;;9.52;;
6626;SDS011;3349;49.830;8.748;2023-06-22T01:11:41;10.20;;;9.20;;
6626;SDS011;3349;49.830;8.748;2023-06-22T01:14:12;11.00;;;9.95;;
6626;SDS011;3349;49.830;8.748;2023-06-22T01:16:44;12.82;;;11.30;;
6626;SDS011;3349;49.830;8.748;2023-06-22T01:19:18;15.50;;;12.45;;
6626;SDS011;3349;49.830;8.748;2023-06-22T01:21:55;13.00;;;11.63;;
6626;SDS011;3349;49.830;8.748;2023-06-22T01:24:25;14.95;;;13.32;;
6626;SDS011;3349;49.830;8.748;2023-06-22T01:26:58;15.50;;;13.88;;
6626;SDS011;3349;49.830;8.748;2023-06-22T01:29:37;14.80;;;13.30;;
6626;SDS011;3349;49.830;8.748;2023-06-22T01:32:05;14.75;;;13.18;;
6626;SDS011;3349;49.830;8.748;2023-06-22T01:34:32;16.15;;;13.45;;
6626;SDS011;3349;49.830;8.748;2023-06-22T01:37:01;14.48;;;12.85;;
6626;SDS011;3349;49.830;8.748;2023-06-22T01:39:29;19.98;;;13.20;;
6626;SDS011;3349;49.830;8.748;2023-06-22T01:41:56;14.02;;;12.63;;
6626;SDS011;3349;49.830;8.748;2023-06-22T01:44:23;13.75;;;12.35;;
6626;SDS011;3349;49.830;8.748;2023-06-22T01:46:53;13.93;;;12.07;;
6626;SDS011;3349;49.830;8.748;2023-06-22T01:49:20;13.20;;;11.85;;
6626;SDS011;3349;49.830;8.748;2023-06-22T01:51:48;13.35;;;12.07;;
6626;SDS011;3349;49.830;8.748;2023-06-22T01:54:15;15.32;;;13.05;;
6626;SDS011;3349;49.830;8.748;2023-06-22T01:56:42;14.13;;;12.73;;
6626;SDS011;3349;49.830;8.748;2023-06-22T01:59:09;14.45;;;13.05;;
6626;SDS011;3349;49.830;8.748;2023-06-22T02:01:41;14.77;;;13.30;;
6626;SDS011;3349;49.830;8.748;2023-06-22T02:04:13;15.75;;;13.50;;
6626;SDS011;3349;49.830;8.748;2023-06-22T02:06:45;14.57;;;13.13;;
6626;SDS011;3349;49.830;8.748;2023-06-22T02:09:15;13.73;;;12.02;;
6626;SDS011;3349;49.830;8.748;2023-06-22T02:11:45;13.23;;;12.02;;
6626;SDS011;3349;49.830;8.748;2023-06-22T02:14:13;15.23;;;13.73;;
6626;SDS011;3349;49.830;8.748;2023-06-22T02:16:40;14.32;;;12.82;;
6626;SDS011;3349;49.830;8.748;2023-06-22T02:19:08;16.13;;;13.80;;
6626;SDS011;3349;49.830;8.748;2023-06-22T02:21:36;14.65;;;13.23;;
6626;SDS011;3349;49.830;8.748;2023-06-22T02:24:03;13.93;;;12.63;;
6626;SDS011;3349;49.830;8.748;2023-06-22T02:26:30;14.52;;;13.13;;
6626;SDS011;3349;49.830;8.748;2023-06-22T02:28:59;15.30;;;13.80;;
6626;SDS011;3349;49.830;8.748;2023-06-22T02:31:26;14.55;;;13.05;;
6626;SDS011;3349;49.830;8.748;2023-06-22T02:33:55;13.73;;;12.38;;
6626;SDS011;3349;49.830;8.748;2023-06-22T02:36:22;15.82;;;14.27;;
6626;SDS011;3349;49.830;8.748;2023-06-22T02:38:51;15.32;;;13.40;;
6626;SDS011;3349;49.830;8.748;2023-06-22T02:41:18;15.45;;;13.93;;
6626;SDS011;3349;49.830;8.748;2023-06-22T02:43:44;14.35;;;12.85;;
6626;SDS011;3349;49.830;8.748;2023-06-22T02:46:11;14.45;;;12.85;;
6626;SDS011;3349;49.830;8.748;2023-06-22T02:48:38;15.57;;;13.98;;
6626;SDS011;3349;49.830;8.748;2023-06-22T02:51:05;14.88;;;13.35;;
6626;SDS011;3349;49.830;8.748;2023-06-22T02:53:32;15.18;;;13.77;;
6626;SDS011;3349;49.830;8.748;2023-06-22T02:56:01;15.18;;;13.02;;
6626;SDS011;3349;49.830;8.748;2023-06-22T02:58:30;14.60;;;13.20;;
6626;SDS011;3349;49.830;8.748;2023-06-22T03:01:03;14.95;;;13.23;;
6626;SDS011;3349;49.830;8.748;2023-06-22T03:03:30;16.17;;;14.55;;
6626;SDS011;3349;49.830;8.748;2023-06-22T03:05:57;15.80;;;14.27;;
6626;SDS011;3349;49.830;8.748;2023-06-22T03:08:25;15.25;;;13.75;;
6626;SDS011;3349;49.830;8.748;2023-06-22T03:10:52;15.43;;;13.88;;
6626;SDS011;3349;49.830;8.748;2023-06-22T03:13:20;14.60;;;13.18;;
6626;SDS011;3349;49.830;8.748;2023-06-22T03:15:47;14.27;;;12.98;;
6626;SDS011;3349;49.830;8.748;2023-06-22T03:18:14;14.57;;;13.00;;
6626;SDS011;3349;49.830;8.748;2023-06-22T03:20:41;14.35;;;12.95;;
6626;SDS011;3349;49.830;8.748;2023-06-22T03:23:08;16.88;;;14.75;;
6626;SDS011;3349;49.830;8.748;2023-06-22T03:25:35;16.60;;;14.85;;
6626;SDS011;3349;49.830;8.748;2023-06-22T03:28:01;17.25;;;15.02;;
6626;SDS011;3349;49.830;8.748;2023-06-22T03:30:30;16.50;;;14.90;;
6626;SDS011;3349;49.830;8.748;2023-06-22T03:32:56;17.00;;;15.38;;
6626;SDS011;3349;49.830;8.748;2023-06-22T03:35:23;16.73;;;15.13;;
6626;SDS011;3349;49.830;8.748;2023-06-22T03:37:50;16.85;;;15.15;;
6626;SDS011;3349;49.830;8.748;2023-06-22T03:40:17;17.55;;;14.90;;
6626;SDS011;3349;49.830;8.748;2023-06-22T03:42:43;18.13;;;15.60;;
6626;SDS011;3349;49.830;8.748;2023-06-22T03:45:10;17.58;;;15.77;;
6626;SDS011;3349;49.830;8.748;2023-06-22T03:47:38;17.15;;;15.45;;
6626;SDS011;3349;49.830;8.748;2023-06-22T03:50:05;17.73;;;15.73;;
6626;SDS011;3349;49.830;8.748;2023-06-22T03:52:32;17.05;;;15.35;;
6626;SDS011;3349;49.830;8.748;2023-06-22T03:54:59;17.25;;;15.45;;
6626;SDS011;3349;49.830;8.748;2023-06-22T03:57:26;16.92;;;15.32;;
6626;SDS011;3349;49.830;8.748;2023-06-22T03:59:53;17.83;;;16.13;;
6626;SDS011;3349;49.830;8.748;2023-06-22T04:02:22;17.75;;;15.90;;
6626;SDS011;3349;49.830;8.748;2023-06-22T04:04:51;17.75;;;15.90;;
6626;SDS011;3349;49.830;8.748;2023-06-22T04:07:17;18.23;;;16.10;;
6626;SDS011;3349;49.830;8.748;2023-06-22T04:09:44;17.08;;;15.25;;
6626;SDS011;3349;49.830;8.748;2023-06-22T04:12:11;18.90;;;16.30;;
6626;SDS011;3349;49.830;8.748;2023-06-22T04:14:37;21.02;;;17.67;;
6626;SDS011;3349;49.830;8.748;2023-06-22T04:17:04;17.90;;;16.00;;
6626;SDS011;3349;49.830;8.748;2023-06-22T04:19:31;18.30;;;16.50;;
6626;SDS011;3349;49.830;8.748;2023-06-22T04:21:59;19.20;;;17.25;;
6626;SDS011;3349;49.830;8.748;2023-06-22T04:24:26;21.30;;;18.20;;
6626;SDS011;3349;49.830;8.748;2023-06-22T04:26:53;19.40;;;17.30;;
6626;SDS011;3349;49.830;8.748;2023-06-22T04:29:20;18.88;;;16.98;;
6626;SDS011;3349;49.830;8.748;2023-06-22T04:31:53;19.67;;;17.48;;
6626;SDS011;3349;49.830;8.748;2023-06-22T04:34:22;20.05;;;17.95;;
6626;SDS011;3349;49.830;8.748;2023-06-22T04:36:51;21.02;;;18.75;;
6626;SDS011;3349;49.830;8.748;2023-06-22T04:39:19;19.30;;;17.45;;
6626;SDS011;3349;49.830;8.748;2023-06-22T04:41:46;19.42;;;17.33;;
6626;SDS011;3349;49.830;8.748;2023-06-22T04:44:13;19.55;;;17.58;;
6626;SDS011;3349;49.830;8.748;2023-06-22T04:46:48;20.88;;;18.75;;
6626;SDS011;3349;49.830;8.748;2023-06-22T04:49:19;20.65;;;18.65;;
6626;SDS011;3349;49.830;8.748;2023-06-22T04:51:46;21.13;;;17.90;;
6626;SDS011;3349;49.830;8.748;2023-06-22T04:54:12;20.30;;;18.20;;
6626;SDS011;3349;49.830;8.748;2023-06-22T04:56:40;21.40;;;19.20;;
6626;SDS011;3349;49.830;8.748;2023-06-22T04:59:07;22.10;;;18.77;;
6626;SDS011;3349;49.830;8.748;2023-06-22T05:01:38;23.17;;;17.65;;
6626;SDS011;3349;49.830;8.748;2023-06-22T05:04:04;23.17;;;18.60;;
6626;SDS011;3349;49.830;8.748;2023-06-22T05:06:31;19.77;;;17.75;;
6626;SDS011;3349;49.830;8.748;2023-06-22T05:08:58;23.10;;;18.50;;
6626;SDS011;3349;49.830;8.748;2023-06-22T05:11:25;21.20;;;19.00;;
6626;SDS011;3349;49.830;8.748;2023-06-22T05:13:53;20.52;;;18.42;;
6626;SDS011;3349;49.830;8.748;2023-06-22T05:16:22;20.77;;;18.58;;
6626;SDS011;3349;49.830;8.748;2023-06-22T05:18:51;20.63;;;18.13;;
6626;SDS011;3349;49.830;8.748;2023-06-22T05:21:21;21.90;;;19.58;;
6626;SDS011;3349;49.830;8.748;2023-06-22T05:23:48;20.42;;;18.20;;
6626;SDS011;3349;49.830;8.748;2023-06-22T05:26:14;21.67;;;19.42;;
6626;SDS011;3349;49.830;8.748;2023-06-22T05:28:41;21.90;;;19.23;;
6626;SDS011;3349;49.830;8.748;2023-06-22T05:31:12;26.52;;;19.05;;
6626;SDS011;3349;49.830;8.748;2023-06-22T05:33:39;21.25;;;19.13;;
6626;SDS011;3349;49.830;8.748;2023-06-22T05:36:06;19.58;;;17.63;;
6626;SDS011;3349;49.830;8.748;2023-06-22T05:38:32;20.88;;;18.90;;
6626;SDS011;3349;49.830;8.748;2023-06-22T05:40:59;19.83;;;17.85;;
6626;SDS011;3349;49.830;8.748;2023-06-22T05:43:26;19.75;;;17.73;;
6626;SDS011;3349;49.830;8.748;2023-06-22T05:45:53;19.63;;;17.63;;
6626;SDS011;3349;49.830;8.748;2023-06-22T05:48:21;24.05;;;17.95;;
6626;SDS011;3349;49.830;8.748;2023-06-22T05:50:48;18.58;;;16.73;;
6626;SDS011;3349;49.830;8.748;2023-06-22T05:53:15;20.45;;;17.50;;
6626;SDS011;3349;49.830;8.748;2023-06-22T05:55:42;18.90;;;17.00;;
6626;SDS011;3349;49.830;8.748;2023-06-22T05:58:08;18.23;;;16.25;;
6626;SDS011;3349;49.830;8.748;2023-06-22T06:00:35;18.08;;;16.33;;
6626;SDS011;3349;49.830;8.748;2023-06-22T06:03:02;18.35;;;15.18;;
6626;SDS011;3349;49.830;8.748;2023-06-22T06:05:30;17.38;;;15.70;;
6626;SDS011;3349;49.830;8.748;2023-06-22T06:07:57;17.50;;;15.80;;
6626;SDS011;3349;49.830;8.748;2023-06-22T06:10:25;18.10;;;16.20;;
6626;SDS011;3349;49.830;8.748;2023-06-22T06:12:52;15.98;;;14.38;;
6626;SDS011;3349;49.830;8.748;2023-06-22T06:15:19;15.38;;;13.88;;
6626;SDS011;3349;49.830;8.748;2023-06-22T06:17:46;19.45;;;13.30;;
6626;SDS011;3349;49.830;8.748;2023-06-22T06:20:13;13.82;;;12.10;;
6626;SDS011;3349;49.830;8.748;2023-06-22T06:22:41;15.18;;;13.60;;
6626;SDS011;3349;49.830;8.748;2023-06-22T06:25:08;15.18;;;13.70;;
6626;SDS011;3349;49.830;8.748;2023-06-22T06:27:40;16.33;;;14.13;;
6626;SDS011;3349;49.830;8.748;2023-06-22T06:30:08;16.48;;;14.85;;
6626;SDS011;3349;49.830;8.748;2023-06-22T06:32:35;16.02;;;14.27;;
6626;SDS011;3349;49.830;8.748;2023-06-22T06:35:03;18.27;;;14.55;;
6626;SDS011;3349;49.830;8.748;2023-06-22T06:37:31;12.93;;;11.20;;
6626;SDS011;3349;49.830;8.748;2023-06-22T06:39:59;17.08;;;15.25;;
6626;SDS011;3349;49.830;8.748;2023-06-22T06:42:25;16.05;;;14.45;;
6626;SDS011;3349;49.830;8.748;2023-06-22T06:44:53;16.75;;;14.88;;
6626;SDS011;3349;49.830;8.748;2023-06-22T06:47:20;16.65;;;15.00;;
6626;SDS011;3349;49.830;8.748;2023-06-22T06:49:47;15.88;;;14.15;;
6626;SDS011;3349;49.830;8.748;2023-06-22T06:52:13;16.98;;;15.35;;
6626;SDS011;3349;49.830;8.748;2023-06-22T06:54:40;16.52;;;14.95;;
6626;SDS011;3349;49.830;8.748;2023-06-22T06:57:09;16.10;;;14.55;;
6626;SDS011;3349;49.830;8.748;2023-06-22T06:59:38;18.20;;;16.33;;
6626;SDS011;3349;49.830;8.748;2023-06-22T07:02:05;16.33;;;14.82;;
6626;SDS011;3349;49.830;8.748;2023-06-22T07:04:32;16.50;;;14.90;;
6626;SDS011;3349;49.830;8.748;2023-06-22T07:06:58;16.70;;;14.90;;
6626;SDS011;3349;49.830;8.748;2023-06-22T07:09:29;17.58;;;15.77;;
6626;SDS011;3349;49.830;8.748;2023-06-22T07:11:56;16.83;;;15.32;;
6626;SDS011;3349;49.830;8.748;2023-06-22T07:14:24;17.17;;;15.43;;
6626;SDS011;3349;49.830;8.748;2023-06-22T07:16:51;16.63;;;14.70;;
6626;SDS011;3349;49.830;8.748;2023-06-22T07:19:23;15.77;;;14.27;;
6626;SDS011;3349;49.830;8.748;2023-06-22T07:21:51;16.38;;;14.65;;
6626;SDS011;3349;49.830;8.748;2023-06-22T07:24:18;15.15;;;13.65;;
6626;SDS011;3349;49.830;8.748;2023-06-22T07:26:45;14.82;;;13.30;;
6626;SDS011;3349;49.830;8.748;2023-06-22T07:29:13;14.60;;;13.07;;
6626;SDS011;3349;49.830;8.748;2023-06-22T07:31:41;15.98;;;14.38;;
6626;SDS011;3349;49.830;8.748;2023-06-22T07:34:08;14.75;;;13.25;;
6626;SDS011;3349;49.830;8.748;2023-06-22T07:36:34;15.90;;;13.70;;
6626;SDS011;3349;49.830;8.748;2023-06-22T07:39:01;15.00;;;13.40;;
6626;SDS011;3349;49.830;8.748;2023-06-22T07:41:28;14.25;;;12.93;;
6626;SDS011;3349;49.830;8.748;2023-06-22T07:43:55;15.00;;;13.07;;
6626;SDS011;3349;49.830;8.748;2023-06-22T07:46:22;15.38;;;13.77;;
6626;SDS011;3349;49.830;8.748;2023-06-22T07:48:50;14.20;;;12.90;;
6626;SDS011;3349;49.830;8.748;2023-06-22T07:51:17;14.45;;;13.05;;
6626;SDS011;3349;49.830;8.748;2023-06-22T07:53:44;14.88;;;13.40;;
6626;SDS011;3349;49.830;8.748;2023-06-22T07:56:11;14.43;;;12.93;;
6626;SDS011;3349;49.830;8.748;2023-06-22T07:58:37;15.48;;;13.18;;
6626;SDS011;3349;49.830;8.748;2023-06-22T08:01:04;14.13;;;12.68;;
6626;SDS011;3349;49.830;8.748;2023-06-22T08:03:32;14.27;;;12.95;;
6626;SDS011;3349;49.830;8.748;2023-06-22T08:06:00;28.98;;;13.60;;
6626;SDS011;3349;49.830;8.748;2023-06-22T08:08:26;14.90;;;13.57;;
6626;SDS011;3349;49.830;8.748;2023-06-22T08:10:53;14.57;;;12.82;;
6626;SDS011;3349;49.830;8.748;2023-06-22T08:13:20;15.00;;;13.68;;
6626;SDS011;3349;49.830;8.748;2023-06-22T08:15:47;14.20;;;12.82;;
6626;SDS011;3349;49.830;8.748;2023-06-22T08:18:14;13.90;;;12.63;;
6626;SDS011;3349;49.830;8.748;2023-06-22T08:20:41;15.10;;;13.57;;
6626;SDS011;3349;49.830;8.748;2023-06-22T08:23:09;14.75;;;11.40;;
6626;SDS011;3349;49.830;8.748;2023-06-22T08:25:36;13.57;;;12.27;;
6626;SDS011;3349;49.830;8.748;2023-06-22T08:28:03;14.43;;;12.93;;
6626;SDS011;3349;49.830;8.748;2023-06-22T08:30:30;13.93;;;12.60;;
6626;SDS011;3349;49.830;8.748;2023-06-22T08:32:57;14.75;;;12.82;;
6626;SDS011;3349;49.830;8.748;2023-06-22T08:35:24;13.15;;;11.90;;
6626;SDS011;3349;49.830;8.748;2023-06-22T08:37:51;12.85;;;11.52;;
6626;SDS011;3349;49.830;8.748;2023-06-22T08:40:21;13.85;;;12.38;;
6626;SDS011;3349;49.830;8.748;2023-06-22T08:42:49;13.35;;;12.15;;
6626;SDS011;3349;49.830;8.748;2023-06-22T08:45:16;13.00;;;11.75;;
6626;SDS011;3349;49.830;8.748;2023-06-22T08:47:42;14.10;;;12.70;;
6626;SDS011;3349;49.830;8.748;2023-06-22T08:50:09;12.80;;;11.68;;
6626;SDS011;3349;49.830;8.748;2023-06-22T08:52:37;13.13;;;11.85;;
6626;SDS011;3349;49.830;8.748;2023-06-22T08:55:06;13.02;;;11.82;;
6626;SDS011;3349;49.830;8.748;2023-06-22T08:57:35;13.38;;;12.18;;
6626;SDS011;3349;49.830;8.748;2023-06-22T09:00:04;12.90;;;11.75;;
6626;SDS011;3349;49.830;8.748;2023-06-22T09:02:40;13.18;;;12.07;;
6626;SDS011;3349;49.830;8.748;2023-06-22T09:05:07;11.88;;;10.88;;
6626;SDS011;3349;49.830;8.748;2023-06-22T09:07:35;12.77;;;11.75;;
6626;SDS011;3349;49.830;8.748;2023-06-22T09:10:02;12.57;;;11.50;;
6626;SDS011;3349;49.830;8.748;2023-06-22T09:12:30;12.52;;;11.32;;
6626;SDS011;3349;49.830;8.748;2023-06-22T09:14:59;12.38;;;11.32;;
6626;SDS011;3349;49.830;8.748;2023-06-22T09:17:27;12.30;;;11.13;;
6626;SDS011;3349;49.830;8.748;2023-06-22T09:19:57;12.27;;;11.27;;
6626;SDS011;3349;49.830;8.748;2023-06-22T09:22:24;11.98;;;11.07;;
6626;SDS011;3349;49.830;8.748;2023-06-22T09:24:54;12.75;;;11.55;;
6626;SDS011;3349;49.830;8.748;2023-06-22T09:27:21;12.65;;;11.45;;
6626;SDS011;3349;49.830;8.748;2023-06-22T09:29:48;12.00;;;11.00;;
6626;SDS011;3349;49.830;8.748;2023-06-22T09:32:16;12.18;;;11.18;;
6626;SDS011;3349;49.830;8.748;2023-06-22T09:34:43;12.13;;;10.98;;
6626;SDS011;3349;49.830;8.748;2023-06-22T09:37:09;12.50;;;11.43;;
6626;SDS011;3349;49.830;8.748;2023-06-22T09:39:36;12.50;;;11.40;;
6626;SDS011;3349;49.830;8.748;2023-06-22T09:42:03;13.40;;;12.30;;
6626;SDS011;3349;49.830;8.748;2023-06-22T09:44:31;13.23;;;12.10;;
6626;SDS011;3349;49.830;8.748;2023-06-22T09:46:58;12.23;;;11.07;;
6626;SDS011;3349;49.830;8.748;2023-06-22T09:49:26;12.85;;;11.65;;
6626;SDS011;3349;49.830;8.748;2023-06-22T09:51:52;12.38;;;11.18;;
6626;SDS011;3349;49.830;8.748;2023-06-22T09:54:19;13.18;;;12.07;;
6626;SDS011;3349;49.830;8.748;2023-06-22T09:56:46;12.48;;;11.27;;
6626;SDS011;3349;49.830;8.748;2023-06-22T09:59:12;11.77;;;10.77;;
6626;SDS011;3349;49.830;8.748;2023-06-22T10:01:39;12.85;;;11.75;;
6626;SDS011;3349;49.830;8.748;2023-06-22T10:04:06;13.93;;;12.82;;
6626;SDS011;3349;49.830;8.748;2023-06-22T10:06:34;12.82;;;11.65;;
6626;SDS011;3349;49.830;8.748;2023-06-22T10:09:00;12.93;;;11.70;;
6626;SDS011;3349;49.830;8.748;2023-06-22T10:11:27;12.43;;;11.35;;
6626;SDS011;3349;49.830;8.748;2023-06-22T10:13:55;12.20;;;11.20;;
6626;SDS011;3349;49.830;8.748;2023-06-22T10:16:23;12.23;;;10.52;;
6626;SDS011;3349;49.830;8.748;2023-06-22T10:18:56;12.40;;;11.40;;
6626;SDS011;3349;49.830;8.748;2023-06-22T10:21:23;12.98;;;11.98;;
6626;SDS011;3349;49.830;8.748;2023-06-22T10:23:52;13.13;;;12.02;;
6626;SDS011;3349;49.830;8.748;2023-06-22T10:26:19;13.07;;;11.88;;
6626;SDS011;3349;49.830;8.748;2023-06-22T10:28:46;12.77;;;11.57;;
6626;SDS011;3349;49.830;8.748;2023-06-22T10:31:12;12.77;;;11.77;;
6626;SDS011;3349;49.830;8.748;2023-06-22T10:33:41;13.57;;;12.07;;
6626;SDS011;3349;49.830;8.748;2023-06-22T10:36:09;12.93;;;11.93;;
6626;SDS011;3349;49.830;8.748;2023-06-22T10:38:36;13.75;;;11.23;;
6626;SDS011;3349;49.830;8.748;2023-06-22T10:41:04;13.13;;;12.02;;
6626;SDS011;3349;49.830;8.748;2023-06-22T10:43:30;13.95;;;12.55;;
6626;SDS011;3349;49.830;8.748;2023-06-22T10:45:57;12.90;;;11.60;;
6626;SDS011;3349;49.830;8.748;2023-06-22T10:48:24;12.80;;;11.63;;
6626;SDS011;3349;49.830;8.748;2023-06-22T10:50:50;13.00;;;11.80;;
6626;SDS011;3349;49.830;8.748;2023-06-22T10:53:18;13.93;;;12.55;;
6626;SDS011;3349;49.830;8.748;2023-06-22T10:55:44;13.32;;;12.07;;
6626;SDS011;3349;49.830;8.748;2023-06-22T10:58:12;12.82;;;11.38;;
6626;SDS011;3349;49.830;8.748;2023-06-22T11:00:40;12.63;;;11.63;;
6626;SDS011;3349;49.830;8.748;2023-06-22T11:03:06;12.68;;;11.65;;
6626;SDS011;3349;49.830;8.748;2023-06-22T11:05:33;13.55;;;12.38;;
6626;SDS011;3349;49.830;8.748;2023-06-22T11:08:00;12.60;;;11.45;;
6626;SDS011;3349;49.830;8.748;2023-06-22T11:10:26;12.80;;;11.63;;
6626;SDS011;3349;49.830;8.748;2023-06-22T11:12:53;12.90;;;11.70;;
6626;SDS011;3349;49.830;8.748;2023-06-22T11:15:22;13.27;;;11.98;;
6626;SDS011;3349;49.830;8.748;2023-06-22T11:17:48;12.52;;;11.52;;
6626;SDS011;3349;49.830;8.748;2023-06-22T11:20:15;12.75;;;11.50;;
6626;SDS011;3349;49.830;8.748;2023-06-22T11:22:42;13.02;;;11.73;;
6626;SDS011;3349;49.830;8.748;2023-06-22T11:25:08;12.93;;;11.65;;
6626;SDS011;3349;49.830;8.748;2023-06-22T11:27:36;12.60;;;11.35;;
6626;SDS011;3349;49.830;8.748;2023-06-22T11:30:03;12.40;;;11.25;;
6626;SDS011;3349;49.830;8.748;2023-06-22T11:32:33;12.95;;;11.60;;
6626;SDS011;3349;49.830;8.748;2023-06-22T11:35:00;13.00;;;11.48;;
6626;SDS011;3349;49.830;8.748;2023-06-22T11:37:27;12.40;;;11.25;;
6626;SDS011;3349;49.830;8.748;2023-06-22T11:39:53;12.90;;;11.60;;
6626;SDS011;3349;49.830;8.748;2023-06-22T11:42:20;11.00;;;10.10;;
6626;SDS011;3349;49.830;8.748;2023-06-22T11:44:48;12.23;;;11.23;;
6626;SDS011;3349;49.830;8.748;2023-06-22T11:47:15;13.85;;;12.55;;
6626;SDS011;3349;49.830;8.748;2023-06-22T11:49:43;12.10;;;11.00;;
6626;SDS011;3349;49.830;8.748;2023-06-22T11:52:09;12.75;;;11.48;;
6626;SDS011;3349;49.830;8.748;2023-06-22T11:54:37;12.45;;;11.25;;
6626;SDS011;3349;49.830;8.748;2023-06-22T11:57:04;11.82;;;10.75;;
6626;SDS011;3349;49.830;8.748;2023-06-22T11:59:31;11.75;;;10.65;;
6626;SDS011;3349;49.830;8.748;2023-06-22T12:01:57;12.38;;;11.27;;
6626;SDS011;3349;49.830;8.748;2023-06-22T12:04:25;12.82;;;11.73;;
6626;SDS011;3349;49.830;8.748;2023-06-22T12:06:53;12.50;;;11.32;;
6626;SDS011;3349;49.830;8.748;2023-06-22T12:09:20;12.68;;;11.38;;
6626;SDS011;3349;49.830;8.748;2023-06-22T12:11:47;12.02;;;10.98;;
6626;SDS011;3349;49.830;8.748;2023-06-22T12:14:13;13.13;;;11.32;;
6626;SDS011;3349;49.830;8.748;2023-06-22T12:16:40;12.18;;;11.07;;
6626;SDS011;3349;49.830;8.748;2023-06-22T12:19:08;12.65;;;11.32;;
6626;SDS011;3349;49.830;8.748;2023-06-22T12:21:36;12.52;;;11.38;;
6626;SDS011;3349;49.830;8.748;2023-06-22T12:24:05;12.57;;;11.38;;
6626;SDS011;3349;49.830;8.748;2023-06-22T12:26:32;12.38;;;10.73;;
6626;SDS011;3349;49.830;8.748;2023-06-22T12:28:59;12.63;;;11.32;;
6626;SDS011;3349;49.830;8.748;2023-06-22T12:31:26;13.52;;;11.27;;
6626;SDS011;3349;49.830;8.748;2023-06-22T12:33:52;11.98;;;10.80;;
6626;SDS011;3349;49.830;8.748;2023-06-22T12:36:19;12.07;;;10.90;;
6626;SDS011;3349;49.830;8.748;2023-06-22T12:38:46;12.75;;;11.25;;
6626;SDS011;3349;49.830;8.748;2023-06-22T12:41:14;11.50;;;10.38;;
6626;SDS011;3349;49.830;8.748;2023-06-22T12:43:40;12.00;;;10.68;;
6626;SDS011;3349;49.830;8.748;2023-06-22T12:46:07;11.57;;;10.38;;
6626;SDS011;3349;49.830;8.748;2023-06-22T12:48:34;12.18;;;10.95;;
6626;SDS011;3349;49.830;8.748;2023-06-22T12:51:06;11.23;;;10.13;;
6626;SDS011;3349;49.830;8.748;2023-06-22T12:53:33;13.13;;;11.63;;
6626;SDS011;3349;49.830;8.748;2023-06-22T12:55:59;12.30;;;10.73;;
6626;SDS011;3349;49.830;8.748;2023-06-22T12:58:28;13.10;;;10.95;;
6626;SDS011;3349;49.830;8.748;2023-06-22T13:00:54;12.77;;;10.00;;
6626;SDS011;3349;49.830;8.748;2023-06-22T13:03:21;11.88;;;10.65;;
6626;SDS011;3349;49.830;8.748;2023-06-22T13:05:50;11.25;;;10.10;;
6626;SDS011;3349;49.830;8.748;2023-06-22T13:08:16;12.13;;;10.30;;
6626;SDS011;3349;49.830;8.748;2023-06-22T13:10:43;10.85;;;9.80;;
6626;SDS011;3349;49.830;8.748;2023-06-22T13:13:10;11.80;;;10.13;;
6626;SDS011;3349;49.830;8.748;2023-06-22T13:15:38;12.20;;;9.20;;
6626;SDS011;3349;49.830;8.748;2023-06-22T13:18:05;11.60;;;9.43;;
6626;SDS011;3349;49.830;8.748;2023-06-22T13:20:31;9.73;;;8.82;;
6626;SDS011;3349;49.830;8.748;2023-06-22T13:22:58;12.68;;;9.65;;
6626;SDS011;3349;49.830;8.748;2023-06-22T13:25:25;14.13;;;8.95;;
6626;SDS011;3349;49.830;8.748;2023-06-22T13:27:52;14.75;;;8.13;;
6626;SDS011;3349;49.830;8.748;2023-06-22T13:30:18;15.95;;;7.75;;
6626;SDS011;3349;49.830;8.748;2023-06-22T13:32:46;15.45;;;7.95;;
6626;SDS011;3349;49.830;8.748;2023-06-22T13:35:13;14.40;;;8.38;;
6626;SDS011;3349;49.830;8.748;2023-06-22T13:37:40;17.80;;;8.05;;
6626;SDS011;3349;49.830;8.748;2023-06-22T13:40:07;13.20;;;8.65;;
6626;SDS011;3349;49.830;8.748;2023-06-22T13:42:34;10.15;;;7.53;;
6626;SDS011;3349;49.830;8.748;2023-06-22T13:45:00;14.35;;;8.45;;
6626;SDS011;3349;49.830;8.748;2023-06-22T13:47:28;13.07;;;7.88;;
6626;SDS011;3349;49.830;8.748;2023-06-22T13:49:57;12.88;;;7.50;;
6626;SDS011;3349;49.830;8.748;2023-06-22T13:52:23;11.00;;;7.38;;
6626;SDS011;3349;49.830;8.748;2023-06-22T13:54:50;11.90;;;8.02;;
6626;SDS011;3349;49.830;8.748;2023-06-22T13:57:17;13.55;;;7.93;;
6626;SDS011;3349;49.830;8.748;2023-06-22T13:59:43;10.63;;;8.15;;
6626;SDS011;3349;49.830;8.748;2023-06-22T14:02:10;12.77;;;8.27;;
6626;SDS011;3349;49.830;8.748;2023-06-22T14:04:37;13.98;;;8.10;;
6626;SDS011;3349;49.830;8.748;2023-06-22T14:07:05;10.95;;;8.00;;
6626;SDS011;3349;49.830;8.748;2023-06-22T14:09:32;11.60;;;8.02;;
6626;SDS011;3349;49.830;8.748;2023-06-22T14:12:02;11.32;;;7.85;;
6626;SDS011;3349;49.830;8.748;2023-06-22T14:14:29;13.73;;;8.30;;
6626;SDS011;3349;49.830;8.748;2023-06-22T14:16:56;12.13;;;7.82;;
6626;SDS011;3349;49.830;8.748;2023-06-22T14:19:23;11.98;;;8.07;;
6626;SDS011;3349;49.830;8.748;2023-06-22T14:21:49;11.18;;;8.27;;
6626;SDS011;3349;49.830;8.748;2023-06-22T14:24:18;13.35;;;7.85;;
6626;SDS011;3349;49.830;8.748;2023-06-22T14:26:44;12.02;;;6.90;;
6626;SDS011;3349;49.830;8.748;2023-06-22T14:29:11;17.05;;;7.05;;
6626;SDS011;3349;49.830;8.748;2023-06-22T14:31:38;13.27;;;7.55;;
6626;SDS011;3349;49.830;8.748;2023-06-22T14:34:05;9.60;;;6.40;;
6626;SDS011;3349;49.830;8.748;2023-06-22T14:36:31;10.75;;;6.80;;
6626;SDS011;3349;49.830;8.748;2023-06-22T14:38:58;14.23;;;7.82;;
6626;SDS011;3349;49.830;8.748;2023-06-22T14:41:26;13.18;;;7.30;;
6626;SDS011;3349;49.830;8.748;2023-06-22T14:43:53;14.45;;;6.90;;
6626;SDS011;3349;49.830;8.748;2023-06-22T14:46:20;11.63;;;7.55;;
6626;SDS011;3349;49.830;8.748;2023-06-22T14:48:46;10.10;;;6.93;;
6626;SDS011;3349;49.830;8.748;2023-06-22T14:51:13;12.30;;;6.95;;